createdAt,value
2024-03-11T00:00:45.305Z,99555.03
2024-03-11T00:03:13.639Z,99544.28
2024-03-11T00:05:41.876Z,99544.78
2024-03-11T00:08:10.715Z,99548.22
2024-03-11T00:10:39.779Z,99539.72
2024-03-11T00:13:10.588Z,99536.47
2024-03-11T00:15:39.599Z,99544.50
2024-03-11T00:18:09.086Z,99553.91
2024-03-11T00:20:37.241Z,99551.13
2024-03-11T00:23:05.108Z,99550.78
2024-03-11T00:25:32.601Z,99548.50
2024-03-11T00:28:00.447Z,99559.56
2024-03-11T00:30:27.897Z,99552.63
2024-03-11T00:32:55.523Z,99562.56
2024-03-11T00:35:25.616Z,99559.69
2024-03-11T00:37:53.169Z,99557.34
2024-03-11T00:40:21.133Z,99560.34
2024-03-11T00:42:48.652Z,99551.88
2024-03-11T00:45:16.177Z,99559.41
2024-03-11T00:47:44.419Z,99556.41
2024-03-11T00:50:14.774Z,99549.22
2024-03-11T00:52:45.978Z,99558.19
2024-03-11T00:55:13.844Z,99547.19
2024-03-11T00:57:43.685Z,99553.88
2024-03-11T01:00:13.771Z,99543.34
2024-03-11T01:02:42.765Z,99546.50
2024-03-11T01:05:11.383Z,99544.34
2024-03-11T01:07:45.640Z,99546.00
2024-03-11T01:10:16.893Z,99543.41
2024-03-11T01:12:46.195Z,99543.00
2024-03-11T01:15:14.130Z,99537.03
2024-03-11T01:17:42.586Z,99528.44
2024-03-11T01:20:14.805Z,99517.69
2024-03-11T01:22:42.751Z,99520.34
2024-03-11T01:25:11.906Z,99516.38
2024-03-11T01:27:42.878Z,99509.16
2024-03-11T01:30:11.480Z,99510.06
2024-03-11T01:32:39.637Z,99506.31
2024-03-11T01:35:07.765Z,99513.31
2024-03-11T01:37:37.633Z,99517.50
2024-03-11T01:40:11.198Z,99513.72
2024-03-11T01:42:39.854Z,99504.66
2024-03-11T01:45:09.453Z,99522.72
2024-03-11T01:47:39.174Z,99510.69
2024-03-11T01:50:09.479Z,99527.84
2024-03-11T01:52:39.451Z,99524.91
2024-03-11T01:55:07.620Z,99527.06
2024-03-11T01:57:35.462Z,99527.88
2024-03-11T02:00:09.517Z,99523.09
2024-03-11T02:02:39.977Z,99517.22
2024-03-11T02:05:10.668Z,99525.94
2024-03-11T02:07:38.977Z,99515.63
2024-03-11T02:10:09.276Z,99516.22
2024-03-11T02:12:37.566Z,99513.81
2024-03-11T02:15:06.485Z,99514.13
2024-03-11T02:17:36.961Z,99521.28
2024-03-11T02:20:09.375Z,99525.94
2024-03-11T02:22:37.535Z,99515.19
2024-03-11T02:25:06.954Z,99525.09
2024-03-11T02:27:34.534Z,99523.91
2024-03-11T02:30:02.286Z,99524.00
2024-03-11T02:32:30.071Z,99529.63
2024-03-11T02:34:57.691Z,99526.06
2024-03-11T02:37:25.253Z,99522.06
2024-03-11T02:39:52.996Z,99516.47
2024-03-11T02:42:21.855Z,99529.63
2024-03-11T02:44:49.933Z,99523.97
2024-03-11T02:47:18.210Z,99533.72
2024-03-11T02:49:45.829Z,99530.47
2024-03-11T02:52:13.394Z,99530.81
2024-03-11T02:54:42.123Z,99527.97
2024-03-11T02:57:09.863Z,99512.63
2024-03-11T02:59:41.732Z,99529.06
2024-03-11T03:02:09.888Z,99518.78
2024-03-11T03:04:40.550Z,99518.69
2024-03-11T03:07:08.401Z,99519.69
2024-03-11T03:09:37.689Z,99510.97
2024-03-11T03:12:05.890Z,99517.88
2024-03-11T03:14:33.507Z,99508.72
2024-03-11T03:17:02.314Z,99519.91
2024-03-11T03:19:29.858Z,99513.00
2024-03-11T03:21:57.406Z,99526.63
2024-03-11T03:24:24.922Z,99509.72
2024-03-11T03:26:52.507Z,99516.03
2024-03-11T03:29:20.486Z,99523.91
2024-03-11T03:31:48.075Z,99515.00
2024-03-11T03:34:16.823Z,99510.16
2024-03-11T03:36:44.508Z,99506.88
2024-03-11T03:39:12.061Z,99517.41
2024-03-11T03:41:39.643Z,99519.91
2024-03-11T03:44:07.371Z,99525.41
2024-03-11T03:46:34.916Z,99514.78
2024-03-11T03:49:02.516Z,99519.03
2024-03-11T03:51:31.331Z,99522.22
2024-03-11T03:54:00.279Z,99522.66
2024-03-11T03:56:27.978Z,99524.09
2024-03-11T03:58:56.037Z,99522.13
2024-03-11T04:01:24.782Z,99512.50
2024-03-11T04:03:52.437Z,99513.91
2024-03-11T04:06:19.928Z,99507.41
2024-03-11T04:08:48.791Z,99530.78
2024-03-11T04:11:16.338Z,99529.22
2024-03-11T04:13:43.860Z,99529.47
2024-03-11T04:16:13.205Z,99535.66
2024-03-11T04:18:43.927Z,99529.22
2024-03-11T04:21:13.084Z,99537.69
2024-03-11T04:23:41.282Z,99536.38
2024-03-11T04:26:10.287Z,99541.72
2024-03-11T04:28:37.957Z,99552.13
2024-03-11T04:31:06.143Z,99546.97
2024-03-11T04:33:35.159Z,99550.94
2024-03-11T04:36:03.024Z,99554.94
2024-03-11T04:38:30.716Z,99543.25
2024-03-11T04:40:58.305Z,99553.28
2024-03-11T04:43:27.836Z,99544.41
2024-03-11T04:45:56.088Z,99554.13
2024-03-11T04:48:23.819Z,99552.00
2024-03-11T04:50:51.457Z,99559.31
2024-03-11T04:53:19.138Z,99551.41
2024-03-11T04:55:48.060Z,99557.72
2024-03-11T04:58:15.728Z,99550.69
2024-03-11T05:00:44.526Z,99557.47
2024-03-11T05:03:14.263Z,99549.66
2024-03-11T05:05:42.208Z,99553.63
2024-03-11T05:08:10.769Z,99559.03
2024-03-11T05:10:39.218Z,99554.56
2024-03-11T05:13:07.069Z,99561.97
2024-03-11T05:15:34.781Z,99563.75
2024-03-11T05:18:04.328Z,99569.25
2024-03-11T05:20:32.151Z,99557.75
2024-03-11T05:22:59.730Z,99557.84
2024-03-11T05:25:27.688Z,99563.25
2024-03-11T05:27:55.231Z,99563.19
2024-03-11T05:30:23.170Z,99564.78
2024-03-11T05:32:50.727Z,99574.56
2024-03-11T05:35:23.045Z,99583.47
2024-03-11T05:37:53.366Z,99593.28
2024-03-11T05:40:20.937Z,99595.81
2024-03-11T05:42:49.693Z,99589.06
2024-03-11T05:45:17.558Z,99591.16
2024-03-11T05:47:46.602Z,99598.59
2024-03-11T05:50:15.978Z,99595.59
2024-03-11T05:52:47.384Z,99605.38
2024-03-11T05:55:15.236Z,99608.78
2024-03-11T05:57:44.634Z,99590.81
2024-03-11T06:00:17.364Z,99590.78
2024-03-11T06:02:46.339Z,99601.06
2024-03-11T06:05:15.340Z,99600.88
2024-03-11T06:07:43.568Z,99609.47
2024-03-11T06:10:12.915Z,99604.13
2024-03-11T06:12:40.926Z,99611.34
2024-03-11T06:15:09.801Z,99599.63
2024-03-11T06:17:37.380Z,99605.03
2024-03-11T06:20:10.633Z,99600.28
2024-03-11T06:22:39.188Z,99606.84
2024-03-11T06:25:07.834Z,99616.56
2024-03-11T06:27:37.367Z,99608.91
2024-03-11T06:30:06.137Z,99608.03
2024-03-11T06:32:35.009Z,99614.09
2024-03-11T06:35:04.373Z,99602.06
2024-03-11T06:37:33.017Z,99621.72
2024-03-11T06:40:00.658Z,99628.31
2024-03-11T06:42:30.166Z,99629.38
2024-03-11T06:44:59.018Z,99633.53
2024-03-11T06:47:26.925Z,99635.91
2024-03-11T06:49:54.551Z,99635.81
2024-03-11T06:52:22.718Z,99633.19
2024-03-11T06:54:50.475Z,99632.56
2024-03-11T06:57:18.070Z,99644.34
2024-03-11T06:59:46.499Z,99639.00
2024-03-11T07:02:15.717Z,99638.13
2024-03-11T07:04:43.835Z,99636.19
2024-03-11T07:07:11.295Z,99639.38
2024-03-11T07:09:38.728Z,99640.31
2024-03-11T07:12:05.595Z,99646.78
2024-03-11T07:14:33.150Z,99647.47
2024-03-11T07:17:03.475Z,99656.13
2024-03-11T07:19:32.579Z,99644.75
2024-03-11T07:22:00.087Z,99650.63
2024-03-11T07:24:28.251Z,99651.06
2024-03-11T07:26:56.518Z,99652.53
2024-03-11T07:29:24.025Z,99658.84
2024-03-11T07:31:55.112Z,99666.44
2024-03-11T07:34:24.502Z,99665.06
2024-03-11T07:36:56.801Z,99654.13
2024-03-11T07:39:25.626Z,99641.22
2024-03-11T07:41:54.201Z,99651.69
2024-03-11T07:44:21.908Z,99657.81
2024-03-11T07:46:49.424Z,99668.13
2024-03-11T07:49:17.149Z,99663.25
2024-03-11T07:51:44.653Z,99660.09
2024-03-11T07:54:13.471Z,99672.63
2024-03-11T07:56:41.886Z,99675.81
2024-03-11T07:59:09.615Z,99674.13
2024-03-11T08:01:37.631Z,99680.72
2024-03-11T08:04:07.226Z,99679.84
2024-03-11T08:06:36.293Z,99695.25
2024-03-11T08:09:04.127Z,99700.81
2024-03-11T08:11:33.190Z,99703.31
2024-03-11T08:14:00.657Z,99721.16
2024-03-11T08:16:28.387Z,99713.47
2024-03-11T08:18:55.902Z,99715.72
2024-03-11T08:21:23.747Z,99721.38
2024-03-11T08:23:51.259Z,99724.81
2024-03-11T08:26:19.369Z,99732.72
2024-03-11T08:28:48.133Z,99725.75
2024-03-11T08:31:15.744Z,99725.88
2024-03-11T08:33:43.225Z,99722.53
2024-03-11T08:36:10.837Z,99729.50
2024-03-11T08:38:39.373Z,99730.38
2024-03-11T08:41:07.768Z,99733.09
2024-03-11T08:43:35.422Z,99739.31
2024-03-11T08:46:04.450Z,99731.31
2024-03-11T08:48:32.282Z,99741.72
2024-03-11T08:51:00.561Z,99746.63
2024-03-11T08:53:28.699Z,99742.16
2024-03-11T08:55:57.321Z,99741.06
2024-03-11T08:58:25.841Z,99747.06
2024-03-11T09:00:53.757Z,99750.66
2024-03-11T09:03:24.413Z,99755.66
2024-03-11T09:05:51.915Z,99757.75
2024-03-11T09:08:19.739Z,99753.63
2024-03-11T09:10:48.051Z,99766.50
2024-03-11T09:13:15.519Z,99768.16
2024-03-11T09:15:45.836Z,99765.63
2024-03-11T09:18:14.379Z,99765.09
2024-03-11T09:20:46.703Z,99768.94
2024-03-11T09:23:14.926Z,99775.22
2024-03-11T09:25:42.567Z,99778.34
2024-03-11T09:28:10.411Z,99785.22
2024-03-11T09:30:39.258Z,99783.53
2024-03-11T09:33:10.108Z,99788.53
2024-03-11T09:35:37.922Z,99787.94
2024-03-11T09:38:07.081Z,99786.44
2024-03-11T09:40:34.537Z,99799.66
2024-03-11T09:43:04.473Z,99796.91
2024-03-11T09:45:36.136Z,99800.47
2024-03-11T09:48:05.533Z,99802.16
2024-03-11T09:50:35.011Z,99820.69
2024-03-11T09:53:07.999Z,99827.91
2024-03-11T09:55:38.756Z,99833.13
2024-03-11T09:58:11.884Z,99833.72
2024-03-11T10:00:50.515Z,99846.78
2024-03-11T10:03:21.934Z,99842.44
2024-03-11T10:05:49.672Z,99849.63
2024-03-11T10:08:19.612Z,99856.31
2024-03-11T10:11:13.350Z,99846.28
2024-03-11T10:13:43.457Z,99855.31
2024-03-11T10:16:18.418Z,99858.59
2024-03-11T10:18:55.233Z,99855.13
2024-03-11T10:21:23.071Z,99855.44
2024-03-11T10:23:50.963Z,99859.38
2024-03-11T10:26:19.863Z,99865.09
2024-03-11T10:28:48.903Z,99865.13
2024-03-11T10:31:24.946Z,99867.97
2024-03-11T10:33:55.182Z,99859.84
2024-03-11T10:36:26.195Z,99872.47
2024-03-11T10:38:58.832Z,99873.22
2024-03-11T10:41:29.347Z,99876.84
2024-03-11T10:43:58.498Z,99882.16
2024-03-11T10:46:26.295Z,99876.63
2024-03-11T10:48:55.501Z,99879.47
2024-03-11T10:51:23.558Z,99874.31
2024-03-11T10:53:53.559Z,99875.09
2024-03-11T10:56:24.934Z,99879.13
2024-03-11T10:58:57.011Z,99888.53
2024-03-11T11:01:34.426Z,99891.78
2024-03-11T11:04:07.163Z,99891.44
2024-03-11T11:06:35.230Z,99894.19
2024-03-11T11:09:12.346Z,99891.81
2024-03-11T11:11:43.560Z,99898.78
2024-03-11T11:14:13.039Z,99890.03
2024-03-11T11:16:44.794Z,99897.38
2024-03-11T11:19:16.042Z,99900.66
2024-03-11T11:21:45.475Z,99890.72
2024-03-11T11:24:32.627Z,99897.13
2024-03-11T11:27:07.639Z,99900.09
2024-03-11T11:29:37.069Z,99910.03
2024-03-11T11:32:06.630Z,99907.41
2024-03-11T11:34:49.012Z,99914.50
2024-03-11T11:37:35.038Z,99908.16
2024-03-11T11:40:30.482Z,99912.63
2024-03-11T11:42:59.853Z,99901.97
2024-03-11T11:45:57.451Z,99906.13
2024-03-11T11:48:27.870Z,99906.09
2024-03-11T11:51:00.312Z,99913.84
2024-03-11T11:53:34.543Z,99916.75
2024-03-11T11:56:05.121Z,99928.94
2024-03-11T11:58:33.950Z,99922.63
2024-03-11T12:01:05.814Z,99915.38
2024-03-11T12:03:36.308Z,99924.13
2024-03-11T12:06:19.294Z,99919.38
2024-03-11T12:08:48.237Z,99934.47
2024-03-11T12:11:19.132Z,99926.44
2024-03-11T12:13:46.329Z,99922.66
2024-03-11T12:16:24.960Z,99931.50
2024-03-11T12:19:01.256Z,99917.81
2024-03-11T12:21:30.432Z,99921.78
2024-03-11T12:23:58.174Z,99921.91
2024-03-11T12:26:32.020Z,99918.13
2024-03-11T12:29:02.357Z,99920.97
2024-03-11T12:31:34.015Z,99930.16
2024-03-11T12:34:03.385Z,99922.63
2024-03-11T12:36:31.598Z,99940.94
2024-03-11T12:38:59.777Z,99939.28
2024-03-11T12:41:42.095Z,99941.47
2024-03-11T12:44:18.193Z,99952.38
2024-03-11T12:46:49.149Z,99951.66
2024-03-11T12:49:16.738Z,99954.78
2024-03-11T12:51:44.494Z,99957.16
2024-03-11T12:54:20.655Z,99951.28
2024-03-11T12:57:05.870Z,99948.91
2024-03-11T12:59:34.348Z,99962.81
2024-03-11T13:02:18.360Z,99962.03
2024-03-11T13:04:47.856Z,99959.38
2024-03-11T13:07:15.921Z,99960.97
2024-03-11T13:09:44.443Z,99965.78
2024-03-11T13:12:18.217Z,99980.69
2024-03-11T13:14:47.141Z,99980.66
2024-03-11T13:17:19.375Z,99987.47
2024-03-11T13:19:48.454Z,99989.53
2024-03-11T13:22:19.879Z,100001.69
2024-03-11T13:24:48.271Z,100004.91
2024-03-11T13:27:16.446Z,100009.41
2024-03-11T13:29:44.082Z,100012.56
2024-03-11T13:32:13.469Z,100014.88
2024-03-11T13:34:43.668Z,100020.09
2024-03-11T13:37:11.540Z,100022.59
2024-03-11T13:39:39.947Z,100014.78
2024-03-11T13:42:10.636Z,100024.72
2024-03-11T13:44:38.650Z,100020.41
2024-03-11T13:47:07.526Z,100028.28
2024-03-11T13:49:34.967Z,100029.44
2024-03-11T13:52:06.312Z,100023.66
2024-03-11T13:54:38.192Z,100029.63
2024-03-11T13:57:08.360Z,100031.28
2024-03-11T13:59:36.185Z,100033.25
2024-03-11T14:02:04.097Z,100034.00
2024-03-11T14:04:31.759Z,100037.25
2024-03-11T14:06:59.723Z,100034.03
2024-03-11T14:09:28.624Z,100043.31
2024-03-11T14:11:56.082Z,100044.78
2024-03-11T14:14:24.792Z,100040.63
2024-03-11T14:16:52.985Z,100042.81
2024-03-11T14:19:20.586Z,100039.09
2024-03-11T14:21:48.743Z,100037.09
2024-03-11T14:24:16.608Z,100043.50
2024-03-11T14:26:45.577Z,100038.75
2024-03-11T14:29:16.464Z,100041.00
2024-03-11T14:31:46.266Z,100042.75
2024-03-11T14:34:15.097Z,100046.81
2024-03-11T14:36:44.867Z,100049.56
2024-03-11T14:39:18.198Z,100048.84
2024-03-11T14:41:48.520Z,100056.06
2024-03-11T14:44:16.648Z,100066.75
2024-03-11T14:46:53.189Z,100064.53
2024-03-11T14:49:26.537Z,100058.28
2024-03-11T14:51:56.107Z,100068.47
2024-03-11T14:54:27.079Z,100063.41
2024-03-11T14:56:57.740Z,100065.44
2024-03-11T14:59:26.404Z,100059.50
2024-03-11T15:01:56.490Z,100064.88
2024-03-11T15:04:26.914Z,100077.31
2024-03-11T15:06:54.959Z,100072.19
2024-03-11T15:09:23.228Z,100074.72
2024-03-11T15:11:53.748Z,100082.44
2024-03-11T15:14:22.585Z,100079.09
2024-03-11T15:16:56.719Z,100090.06
2024-03-11T15:19:25.340Z,100099.56
2024-03-11T15:21:53.032Z,100095.94
2024-03-11T15:24:22.293Z,100100.75
2024-03-11T15:26:51.068Z,100098.84
2024-03-11T15:29:18.642Z,100102.91
2024-03-11T15:31:48.967Z,100093.78
2024-03-11T15:34:16.698Z,100097.59
2024-03-11T15:36:44.284Z,100097.66
2024-03-11T15:39:12.546Z,100102.09
2024-03-11T15:41:40.726Z,100108.91
2024-03-11T15:44:10.918Z,100111.53
2024-03-11T15:46:40.057Z,100117.59
2024-03-11T15:49:09.129Z,100122.91
2024-03-11T15:51:37.068Z,100116.63
2024-03-11T15:54:06.763Z,100121.78
2024-03-11T15:56:35.193Z,100122.59
2024-03-11T15:59:02.638Z,100118.88
2024-03-11T16:01:32.849Z,100123.31
2024-03-11T16:04:01.631Z,100128.25
2024-03-11T16:06:31.409Z,100126.75
2024-03-11T16:08:59.000Z,100140.28
2024-03-11T16:11:27.183Z,100137.75
2024-03-11T16:13:54.394Z,100147.84
2024-03-11T16:16:22.274Z,100152.69
2024-03-11T16:18:49.018Z,100146.91
2024-03-11T16:21:16.574Z,100147.06
2024-03-11T16:23:47.172Z,100154.97
2024-03-11T16:26:15.556Z,100150.41
2024-03-11T16:28:43.868Z,100152.44
2024-03-11T16:31:13.347Z,100160.66
2024-03-11T16:33:41.025Z,100163.16
2024-03-11T16:36:11.105Z,100165.25
2024-03-11T16:38:37.682Z,100172.16
2024-03-11T16:41:06.538Z,100166.69
2024-03-11T16:43:33.370Z,100169.13
2024-03-11T16:46:02.873Z,100168.13
2024-03-11T16:48:29.675Z,100167.81
2024-03-11T16:50:57.194Z,100172.13
2024-03-11T16:53:23.826Z,100170.69
2024-03-11T16:55:55.106Z,100172.72
2024-03-11T16:58:25.447Z,100180.56
2024-03-11T17:00:53.737Z,100189.03
2024-03-11T17:03:21.542Z,100191.28
2024-03-11T17:05:49.740Z,100188.25
2024-03-11T17:08:17.221Z,100198.19
2024-03-11T17:10:46.781Z,100201.81
2024-03-11T17:13:15.858Z,100195.31
2024-03-11T17:15:44.997Z,100202.78
2024-03-11T17:18:13.595Z,100207.16
2024-03-11T17:20:46.027Z,100211.00
2024-03-11T17:23:17.196Z,100220.75
2024-03-11T17:25:45.999Z,100217.66
2024-03-11T17:28:17.334Z,100223.25
2024-03-11T17:30:47.948Z,100221.28
2024-03-11T17:33:15.735Z,100222.22
2024-03-11T17:35:46.366Z,100224.13
2024-03-11T17:38:14.727Z,100222.28
2024-03-11T17:40:44.025Z,100224.44
2024-03-11T17:43:11.802Z,100234.50
2024-03-11T17:45:43.115Z,100230.72
2024-03-11T17:48:12.184Z,100239.34
2024-03-11T17:50:40.351Z,100240.25
2024-03-11T17:53:07.466Z,100243.47
2024-03-11T17:55:38.184Z,100241.47
2024-03-11T17:58:06.013Z,100247.09
2024-03-11T18:00:35.374Z,100250.25
2024-03-11T18:03:03.749Z,100252.72
2024-03-11T18:05:33.696Z,100257.75
2024-03-11T18:08:01.066Z,100260.13
2024-03-11T18:10:33.181Z,100262.13
2024-03-11T18:13:01.514Z,100267.38
2024-03-11T18:15:29.884Z,100273.38
2024-03-11T18:17:56.856Z,100266.56
2024-03-11T18:20:28.065Z,100279.63
2024-03-11T18:22:57.264Z,100284.78
2024-03-11T18:25:26.140Z,100290.69
2024-03-11T18:27:57.840Z,100294.06
2024-03-11T18:30:26.453Z,100283.56
2024-03-11T18:32:57.091Z,100295.53
2024-03-11T18:35:26.596Z,100293.84
2024-03-11T18:37:54.835Z,100288.72
2024-03-11T18:40:24.682Z,100292.31
2024-03-11T18:42:53.353Z,100296.63
2024-03-11T18:45:24.218Z,100296.97
2024-03-11T18:47:52.006Z,100296.47
2024-03-11T18:50:20.941Z,100305.16
2024-03-11T18:52:58.406Z,100307.81
2024-03-11T18:55:31.582Z,100317.00
2024-03-11T18:58:00.809Z,100315.28
2024-03-11T19:00:30.911Z,100318.97
2024-03-11T19:03:00.335Z,100311.75
2024-03-11T19:05:28.637Z,100313.19
2024-03-11T19:07:57.181Z,100315.16
2024-03-11T19:10:28.034Z,100310.56
2024-03-11T19:12:57.826Z,100315.69
2024-03-11T19:15:28.837Z,100316.38
2024-03-11T19:17:56.886Z,100314.22
2024-03-11T19:20:26.805Z,100318.44
2024-03-11T19:22:56.084Z,100316.03
2024-03-11T19:25:28.012Z,100316.75
2024-03-11T19:27:58.281Z,100319.38
2024-03-11T19:30:29.121Z,100316.50
2024-03-11T19:32:58.529Z,100317.25
2024-03-11T19:35:26.402Z,100316.03
2024-03-11T19:38:49.861Z,100322.06
2024-03-11T19:41:27.198Z,100334.84
2024-03-11T19:44:17.350Z,100327.28
2024-03-11T19:47:18.023Z,100334.16
2024-03-11T19:50:12.336Z,100346.50
2024-03-11T19:53:58.863Z,100339.81
2024-03-11T19:57:26.323Z,100340.28
2024-03-11T20:00:35.484Z,100340.84
2024-03-11T20:03:19.207Z,100344.81
2024-03-11T20:06:21.693Z,100352.97
2024-03-11T20:09:19.322Z,100352.91
2024-03-11T20:12:31.132Z,100362.47
2024-03-11T20:15:02.648Z,100357.06
2024-03-11T20:17:54.072Z,100358.19
2024-03-11T20:20:55.009Z,100365.13
2024-03-11T20:23:59.594Z,100369.09
2024-03-11T20:26:31.709Z,100372.06
2024-03-11T20:29:07.151Z,100381.81
2024-03-11T20:31:53.256Z,100373.84
2024-03-11T20:34:21.136Z,100384.69
2024-03-11T20:36:49.214Z,100394.81
2024-03-11T20:39:17.707Z,100401.53
2024-03-11T20:41:45.273Z,100398.22
2024-03-11T20:44:12.751Z,100392.56
2024-03-11T20:46:41.515Z,100396.19
2024-03-11T20:49:09.340Z,100406.66
2024-03-11T20:51:40.635Z,100405.47
2024-03-11T20:54:08.486Z,100412.66
2024-03-11T20:56:35.988Z,100403.75
2024-03-11T20:59:03.663Z,100409.53
2024-03-11T21:01:32.482Z,100407.91
2024-03-11T21:04:01.979Z,100411.56
2024-03-11T21:06:29.517Z,100413.78
2024-03-11T21:08:57.012Z,100418.72
2024-03-11T21:11:25.031Z,100425.44
2024-03-11T21:13:52.556Z,100423.50
2024-03-11T21:16:20.601Z,100426.47
2024-03-11T21:18:59.083Z,100433.09
2024-03-11T21:21:54.715Z,100438.06
2024-03-11T21:24:40.351Z,100440.09
2024-03-11T21:27:17.055Z,100446.06
2024-03-11T21:29:44.779Z,100446.34
2024-03-11T21:32:14.276Z,100449.63
2024-03-11T21:34:46.022Z,100458.28
2024-03-11T21:37:15.939Z,100465.91
2024-03-11T21:39:44.689Z,100465.41
2024-03-11T21:42:13.022Z,100464.84
2024-03-11T21:44:40.665Z,100468.38
2024-03-11T21:47:08.144Z,100472.47
2024-03-11T21:49:35.598Z,100472.06
2024-03-11T21:52:03.094Z,100476.34
2024-03-11T21:54:35.074Z,100471.72
2024-03-11T21:57:04.523Z,100477.22
2024-03-11T21:59:32.011Z,100478.44
2024-03-11T22:01:59.539Z,100473.34
2024-03-11T22:04:27.084Z,100474.50
2024-03-11T22:06:54.558Z,100471.06
2024-03-11T22:09:23.957Z,100472.97
2024-03-11T22:11:52.829Z,100467.19
2024-03-11T22:14:20.367Z,100469.53
2024-03-11T22:16:47.841Z,100471.69
2024-03-11T22:19:15.302Z,100471.66
2024-03-11T22:21:42.822Z,100476.84
2024-03-11T22:24:11.806Z,100476.28
2024-03-11T22:26:42.514Z,100482.34
2024-03-11T22:29:12.733Z,100479.06
2024-03-11T22:31:40.867Z,100485.59
2024-03-11T22:34:08.744Z,100489.38
2024-03-11T22:36:38.276Z,100497.41
2024-03-11T22:39:08.945Z,100497.75
2024-03-11T22:41:36.557Z,100499.09
2024-03-11T22:44:04.138Z,100487.94
2024-03-11T22:46:33.131Z,100491.22
2024-03-11T22:49:08.508Z,100498.25
2024-03-11T22:51:41.109Z,100501.22
2024-03-11T22:54:09.102Z,100494.75
2024-03-11T22:56:37.909Z,100500.50
2024-03-11T22:59:07.383Z,100498.91
2024-03-11T23:01:36.447Z,100502.97
2024-03-11T23:04:04.353Z,100501.31
2024-03-11T23:06:33.417Z,100507.47
2024-03-11T23:09:01.086Z,100510.50
2024-03-11T23:11:28.777Z,100505.53
2024-03-11T23:13:57.363Z,100505.03
2024-03-11T23:16:26.844Z,100508.03
2024-03-11T23:18:55.727Z,100515.03
2024-03-11T23:21:24.390Z,100514.31
2024-03-11T23:23:52.006Z,100520.41
2024-03-11T23:26:19.546Z,100514.19
2024-03-11T23:28:47.279Z,100514.59
2024-03-11T23:31:17.550Z,100517.50
2024-03-11T23:33:45.282Z,100522.47
2024-03-11T23:36:14.595Z,100524.88
2024-03-11T23:38:42.278Z,100520.53
2024-03-11T23:41:13.143Z,100517.69
2024-03-11T23:43:42.134Z,100523.53
2024-03-11T23:46:09.993Z,100526.78
2024-03-11T23:48:44.361Z,100525.31
2024-03-11T23:51:13.816Z,100527.81
2024-03-11T23:53:41.611Z,100524.72
2024-03-11T23:56:10.193Z,100527.16
2024-03-11T23:58:38.832Z,100536.81
